createdAt,value
2023-04-26T00:00:18.080Z,1014.619345
2023-04-26T00:05:18.508Z,1014.627826
2023-04-26T00:10:17.963Z,1014.681001
2023-04-26T00:15:18.047Z,1014.697043
2023-04-26T00:20:18.554Z,1014.740146
2023-04-26T00:25:17.636Z,1014.851237
2023-04-26T00:30:17.600Z,1014.829764
2023-04-26T00:35:18.113Z,1014.823413
2023-04-26T00:40:17.895Z,1014.824653
2023-04-26T00:45:18.017Z,1014.830783
2023-04-26T00:50:17.636Z,1014.894330
2023-04-26T00:55:17.562Z,1014.897260
2023-04-26T01:00:17.561Z,1014.877070
2023-04-26T01:05:17.668Z,1014.890571
2023-04-26T01:10:17.647Z,1014.943515
2023-04-26T01:15:17.488Z,1015.018632
2023-04-26T01:20:17.708Z,1015.061174
2023-04-26T01:25:17.762Z,1015.051107
2023-04-26T01:30:17.612Z,1015.050749
2023-04-26T01:35:18.029Z,1015.062256
2023-04-26T01:40:17.650Z,1015.040288
2023-04-26T01:45:18.821Z,1015.085679
2023-04-26T01:50:17.828Z,1015.117935
2023-04-26T01:55:17.601Z,1015.144427
2023-04-26T02:00:17.797Z,1015.169822
2023-04-26T02:05:17.790Z,1015.182626
2023-04-26T02:10:17.657Z,1015.160686
2023-04-26T02:15:18.152Z,1015.187018
2023-04-26T02:20:17.782Z,1015.156039
2023-04-26T02:25:17.618Z,1015.173664
2023-04-26T02:30:17.629Z,1015.198838
2023-04-26T02:35:17.685Z,1015.203312
2023-04-26T02:40:17.559Z,1015.206522
2023-04-26T02:45:17.669Z,1015.222542
2023-04-26T02:50:17.952Z,1015.234425
2023-04-26T02:55:18.134Z,1015.235894
2023-04-26T03:00:17.667Z,1015.200257
2023-04-26T03:05:17.792Z,1015.217537
2023-04-26T03:10:18.348Z,1015.218214
2023-04-26T03:15:17.618Z,1015.189180
2023-04-26T03:20:17.834Z,1015.189517
2023-04-26T03:25:17.502Z,1015.204099
2023-04-26T03:30:17.553Z,1015.164103
2023-04-26T03:35:17.651Z,1015.198733
2023-04-26T03:40:17.586Z,1015.250889
2023-04-26T03:45:17.539Z,1015.269498
2023-04-26T03:50:17.947Z,1015.337962
2023-04-26T03:55:17.605Z,1015.332617
2023-04-26T04:00:17.851Z,1015.431162
2023-04-26T04:05:17.879Z,1015.514953
2023-04-26T04:10:17.603Z,1015.507792
2023-04-26T04:15:17.662Z,1015.547873
2023-04-26T04:20:17.744Z,1015.509785
2023-04-26T04:25:17.962Z,1015.503816
2023-04-26T04:30:17.680Z,1015.531729
2023-04-26T04:35:17.629Z,1015.517995
2023-04-26T04:40:17.614Z,1015.540847
2023-04-26T04:45:17.400Z,1015.639186
2023-04-26T04:50:17.992Z,1015.711045
2023-04-26T04:55:17.756Z,1015.771383
2023-04-26T05:00:17.526Z,1015.822177
2023-04-26T05:05:17.893Z,1015.852984
2023-04-26T05:10:17.665Z,1015.895879
2023-04-26T05:15:18.006Z,1015.859163
2023-04-26T05:20:17.947Z,1015.877781
2023-04-26T05:25:17.948Z,1015.906280
2023-04-26T05:30:18.060Z,1015.930489
2023-04-26T05:35:17.918Z,1015.942812
2023-04-26T05:40:17.624Z,1015.998751
2023-04-26T05:45:17.486Z,1016.001939
2023-04-26T05:50:17.685Z,1016.032464
2023-04-26T05:55:17.508Z,1016.129995
2023-04-26T06:00:17.398Z,1016.173714
2023-04-26T06:05:17.823Z,1016.142768
2023-04-26T06:10:17.527Z,1016.078757
2023-04-26T06:15:17.881Z,1016.098815
2023-04-26T06:20:17.557Z,1016.062636
2023-04-26T06:25:17.332Z,1016.096473
2023-04-26T06:30:17.391Z,1016.102134
2023-04-26T06:35:17.729Z,1016.130016
2023-04-26T06:40:17.437Z,1016.193647
2023-04-26T06:45:17.673Z,1016.195748
2023-04-26T06:50:17.534Z,1016.243572
2023-04-26T06:55:17.427Z,1016.293430
2023-04-26T07:00:17.418Z,1016.219557
2023-04-26T07:05:17.576Z,1016.234195
2023-04-26T07:10:17.339Z,1016.229400
2023-04-26T07:15:17.672Z,1016.249366
2023-04-26T07:20:17.753Z,1016.254486
2023-04-26T07:25:17.455Z,1016.240427
2023-04-26T07:30:17.516Z,1016.272746
2023-04-26T07:35:17.635Z,1016.331645
2023-04-26T07:40:18.179Z,1016.287797
2023-04-26T07:45:18.110Z,1016.320722
2023-04-26T07:50:17.410Z,1016.253869
2023-04-26T07:55:17.983Z,1016.221566
2023-04-26T08:00:17.938Z,1016.317449
2023-04-26T08:05:17.952Z,1016.357170
2023-04-26T08:10:17.659Z,1016.427919
2023-04-26T08:15:17.572Z,1016.392469
2023-04-26T08:20:18.145Z,1016.238563
2023-04-26T08:25:17.675Z,1016.299749
2023-04-26T08:30:17.813Z,1016.386840
2023-04-26T08:35:17.543Z,1016.303242
2023-04-26T08:40:17.324Z,1016.301302
2023-04-26T08:45:17.303Z,1016.305816
2023-04-26T08:50:17.830Z,1016.282740
2023-04-26T08:55:17.771Z,1016.183869
2023-04-26T09:00:17.440Z,1016.265056
2023-04-26T09:05:17.623Z,1016.349287
2023-04-26T09:10:17.352Z,1016.451978
2023-04-26T09:15:17.402Z,1016.478580
2023-04-26T09:20:17.507Z,1016.465630
2023-04-26T09:25:17.544Z,1016.366728
2023-04-26T09:30:17.336Z,1016.299339
2023-04-26T09:35:17.503Z,1016.318717
2023-04-26T09:40:17.301Z,1016.411227
2023-04-26T09:45:17.300Z,1016.530975
2023-04-26T09:50:17.330Z,1016.579761
2023-04-26T09:55:31.040Z,1016.560429
2023-04-26T10:00:18.026Z,1016.495996
2023-04-26T10:05:17.779Z,1016.468190
2023-04-26T10:10:17.952Z,1016.441661
2023-04-26T10:15:17.776Z,1016.404648
2023-04-26T10:20:18.064Z,1016.306553
2023-04-26T10:25:17.571Z,1016.317874
2023-04-26T10:30:17.719Z,1016.323133
2023-04-26T10:35:17.710Z,1016.273419
2023-04-26T10:40:17.279Z,1016.338483
2023-04-26T10:45:17.396Z,1016.321891
2023-04-26T10:50:17.865Z,1016.230516
2023-04-26T10:55:17.295Z,1016.222561
2023-04-26T11:00:17.373Z,1016.242356
2023-04-26T11:05:17.446Z,1016.320723
2023-04-26T11:10:17.326Z,1016.345980
2023-04-26T11:15:17.343Z,1016.309425
2023-04-26T11:20:17.405Z,1016.268709
2023-04-26T11:25:17.368Z,1016.310422
2023-04-26T11:30:17.360Z,1016.338537
2023-04-26T11:35:17.370Z,1016.347005
2023-04-26T11:40:17.579Z,1016.330209
2023-04-26T11:45:17.447Z,1016.295937
2023-04-26T11:50:17.358Z,1016.208134
2023-04-26T11:55:17.254Z,1016.126863
2023-04-26T12:00:17.370Z,1016.192376
2023-04-26T12:05:17.363Z,1016.263940
2023-04-26T12:10:17.633Z,1016.274434
2023-04-26T12:15:17.658Z,1016.237849
2023-04-26T12:20:17.324Z,1016.078324
2023-04-26T12:25:17.681Z,1016.065701
2023-04-26T12:30:17.595Z,1016.091598
2023-04-26T12:35:17.561Z,1016.120837
2023-04-26T12:40:17.280Z,1016.162329
2023-04-26T12:45:17.495Z,1016.136666
2023-04-26T12:50:18.651Z,1016.139708
2023-04-26T12:55:17.575Z,1016.172673
2023-04-26T13:00:18.115Z,1016.151859
2023-04-26T13:05:17.390Z,1016.068753
2023-04-26T13:10:17.273Z,1016.128885
2023-04-26T13:15:17.846Z,1016.223029
2023-04-26T13:20:17.306Z,1016.250689
2023-04-26T13:25:17.404Z,1016.248094
2023-04-26T13:30:17.264Z,1016.222573
2023-04-26T13:35:17.312Z,1016.228621
2023-04-26T13:40:17.533Z,1016.155445
2023-04-26T13:45:19.233Z,1016.216403
2023-04-26T13:50:17.599Z,1016.309865
2023-04-26T13:55:17.373Z,1016.375739
2023-04-26T14:00:17.221Z,1016.376302
2023-04-26T14:05:17.657Z,1016.364202
2023-04-26T14:10:17.259Z,1016.446890
2023-04-26T14:15:17.356Z,1016.485386
2023-04-26T14:20:17.291Z,1016.475475
2023-04-26T14:25:17.641Z,1016.512161
2023-04-26T14:30:17.217Z,1016.536850
2023-04-26T14:35:17.367Z,1016.545620
2023-04-26T14:40:17.656Z,1016.528262
2023-04-26T14:45:17.612Z,1016.475008
2023-04-26T14:50:17.284Z,1016.498229
2023-04-26T14:55:17.395Z,1016.493160
2023-04-26T15:00:17.213Z,1016.467922
2023-04-26T15:05:17.456Z,1016.449539
2023-04-26T15:10:17.177Z,1016.460982
2023-04-26T15:15:17.196Z,1016.476218
2023-04-26T15:20:17.796Z,1016.388806
2023-04-26T15:25:17.513Z,1016.371809
2023-04-26T15:30:17.674Z,1016.382053
2023-04-26T15:35:17.354Z,1016.458249
2023-04-26T15:40:17.340Z,1016.509735
2023-04-26T15:45:17.796Z,1016.583421
2023-04-26T15:50:17.851Z,1016.642723
2023-04-26T15:55:17.219Z,1016.650179
2023-04-26T16:00:17.270Z,1016.668123
2023-04-26T16:05:17.346Z,1016.696381
2023-04-26T16:10:17.304Z,1016.650874
2023-04-26T16:15:17.243Z,1016.656361
2023-04-26T16:20:17.536Z,1016.665128
2023-04-26T16:25:17.304Z,1016.657577
2023-04-26T16:30:17.264Z,1016.639942
2023-04-26T16:35:17.276Z,1016.605441
2023-04-26T16:40:17.346Z,1016.607503
2023-04-26T16:45:17.237Z,1016.607105
2023-04-26T16:50:17.364Z,1016.602560
2023-04-26T16:55:17.345Z,1016.636563
2023-04-26T17:00:17.350Z,1016.641008
2023-04-26T17:05:17.367Z,1016.611277
2023-04-26T17:10:17.441Z,1016.622178
2023-04-26T17:15:17.172Z,1016.626851
2023-04-26T17:20:17.271Z,1016.693146
2023-04-26T17:25:17.551Z,1016.710984
2023-04-26T17:30:17.229Z,1016.733194
2023-04-26T17:35:17.438Z,1016.758809
2023-04-26T17:40:17.195Z,1016.889943
2023-04-26T17:45:17.180Z,1016.942109
2023-04-26T17:50:17.442Z,1016.948780
2023-04-26T17:55:17.357Z,1016.963230
2023-04-26T18:00:18.044Z,1016.961738
2023-04-26T18:05:17.679Z,1016.967370
2023-04-26T18:10:17.575Z,1017.029996
2023-04-26T18:15:17.171Z,1017.086619
2023-04-26T18:20:17.295Z,1017.117350
2023-04-26T18:25:17.310Z,1017.155126
2023-04-26T18:30:17.285Z,1017.193441
2023-04-26T18:35:17.228Z,1017.226776
2023-04-26T18:40:17.282Z,1017.241397
2023-04-26T18:45:17.198Z,1017.301470
2023-04-26T18:50:17.250Z,1017.390073
2023-04-26T18:55:17.527Z,1017.380529
2023-04-26T19:00:17.460Z,1017.458486
2023-04-26T19:05:17.469Z,1017.446155
2023-04-26T19:10:17.377Z,1017.476740
2023-04-26T19:15:17.110Z,1017.519532
2023-04-26T19:20:17.619Z,1017.572995
2023-04-26T19:25:17.193Z,1017.597261
2023-04-26T19:30:17.161Z,1017.634614
2023-04-26T19:35:17.508Z,1017.618322
2023-04-26T19:40:17.141Z,1017.627490
2023-04-26T19:45:17.178Z,1017.659250
2023-04-26T19:50:17.262Z,1017.700844
2023-04-26T19:55:17.234Z,1017.765837
2023-04-26T20:00:17.262Z,1017.859812
2023-04-26T20:05:17.529Z,1017.868622
2023-04-26T20:10:17.547Z,1017.906865
2023-04-26T20:15:17.622Z,1017.979809
2023-04-26T20:20:17.931Z,1018.021412
2023-04-26T20:25:17.223Z,1018.035609
2023-04-26T20:30:17.180Z,1018.034349
2023-04-26T20:35:17.449Z,1018.010784
2023-04-26T20:40:17.315Z,1018.035870
2023-04-26T20:45:17.212Z,1018.072496
2023-04-26T20:50:17.491Z,1018.066203
2023-04-26T20:55:17.205Z,1018.055658
2023-04-26T21:00:17.280Z,1018.038152
2023-04-26T21:05:17.360Z,1018.072432
2023-04-26T21:10:17.537Z,1018.108247
2023-04-26T21:15:17.217Z,1018.114212
2023-04-26T21:20:17.860Z,1018.126471
2023-04-26T21:25:17.532Z,1018.172271
2023-04-26T21:30:17.472Z,1018.200104
2023-04-26T21:35:17.174Z,1018.271251
2023-04-26T21:40:17.696Z,1018.352298
2023-04-26T21:45:17.116Z,1018.400878
2023-04-26T21:50:17.161Z,1018.434233
2023-04-26T21:55:17.570Z,1018.473787
2023-04-26T22:00:17.371Z,1018.528841
2023-04-26T22:05:17.563Z,1018.543606
2023-04-26T22:10:17.150Z,1018.588383
2023-04-26T22:15:17.363Z,1018.586843
2023-04-26T22:20:17.351Z,1018.639913
2023-04-26T22:25:17.173Z,1018.677388
2023-04-26T22:30:25.478Z,1018.700565
2023-04-26T22:35:17.336Z,1018.752055
2023-04-26T22:40:17.415Z,1018.806678
2023-04-26T22:45:17.189Z,1018.833232
2023-04-26T22:50:17.386Z,1018.848096
2023-04-26T22:55:17.364Z,1018.862777
2023-04-26T23:00:17.444Z,1018.885414
2023-04-26T23:05:17.127Z,1018.873079
2023-04-26T23:10:17.274Z,1018.872651
2023-04-26T23:15:17.084Z,1018.867927
2023-04-26T23:20:17.303Z,1018.871232
2023-04-26T23:25:17.165Z,1018.889517
2023-04-26T23:30:17.287Z,1018.886302
2023-04-26T23:35:17.167Z,1018.897741
2023-04-26T23:40:17.175Z,1018.860259
2023-04-26T23:45:17.291Z,1018.876490
2023-04-26T23:50:17.581Z,1018.872684
2023-04-26T23:55:17.163Z,1018.848666
